sensor_id;sensor_type;location;lat;lon;timestamp;temperature;humidity
47022;DHT22;32779;52.264;6.154;2022-09-29T00:00:50;7.20;99.90
47022;DHT22;32779;52.264;6.154;2022-09-29T00:03:17;7.10;99.90
47022;DHT22;32779;52.264;6.154;2022-09-29T00:05:47;7.10;99.90
47022;DHT22;32779;52.264;6.154;2022-09-29T00:08:15;7.10;99.90
47022;DHT22;32779;52.264;6.154;2022-09-29T00:10:41;7.10;99.90
47022;DHT22;32779;52.264;6.154;2022-09-29T00:13:06;7.00;99.90
47022;DHT22;32779;52.264;6.154;2022-09-29T00:15:32;7.00;99.90
47022;DHT22;32779;52.264;6.154;2022-09-29T00:17:57;7.10;99.90
47022;DHT22;32779;52.264;6.154;2022-09-29T00:20:23;7.00;99.90
47022;DHT22;32779;52.264;6.154;2022-09-29T00:22:49;7.10;99.90
47022;DHT22;32779;52.264;6.154;2022-09-29T00:25:16;7.00;99.90
47022;DHT22;32779;52.264;6.154;2022-09-29T00:27:42;7.00;99.90
47022;DHT22;32779;52.264;6.154;2022-09-29T00:30:08;7.00;99.90
47022;DHT22;32779;52.264;6.154;2022-09-29T00:32:37;7.00;99.90
47022;DHT22;32779;52.264;6.154;2022-09-29T00:35:02;6.90;99.90
47022;DHT22;32779;52.264;6.154;2022-09-29T00:37:28;7.00;99.90
47022;DHT22;32779;52.264;6.154;2022-09-29T00:39:53;6.90;99.90
47022;DHT22;32779;52.264;6.154;2022-09-29T00:42:19;6.90;99.90
47022;DHT22;32779;52.264;6.154;2022-09-29T00:45:37;6.90;99.90
47022;DHT22;32779;52.264;6.154;2022-09-29T00:48:07;6.80;99.90
47022;DHT22;32779;52.264;6.154;2022-09-29T00:50:42;6.80;99.90
47022;DHT22;32779;52.264;6.154;2022-09-29T00:53:10;6.80;99.90
47022;DHT22;32779;52.264;6.154;2022-09-29T00:55:57;6.80;99.90
47022;DHT22;32779;52.264;6.154;2022-09-29T00:58:32;6.80;99.90
47022;DHT22;32779;52.264;6.154;2022-09-29T01:00:58;6.80;99.90
47022;DHT22;32779;52.264;6.154;2022-09-29T01:03:28;6.80;99.90
47022;DHT22;32779;52.264;6.154;2022-09-29T01:05:58;6.80;99.90
47022;DHT22;32779;52.264;6.154;2022-09-29T01:08:38;6.80;99.90
47022;DHT22;32779;52.264;6.154;2022-09-29T01:11:05;6.80;99.90
47022;DHT22;32779;52.264;6.154;2022-09-29T01:13:32;6.80;99.90
47022;DHT22;32779;52.264;6.154;2022-09-29T01:15:58;6.80;99.90
47022;DHT22;32779;52.264;6.154;2022-09-29T01:18:25;6.90;99.90
47022;DHT22;32779;52.264;6.154;2022-09-29T01:23:39;6.80;99.90
47022;DHT22;32779;52.264;6.154;2022-09-29T01:26:29;6.80;99.90
47022;DHT22;32779;52.264;6.154;2022-09-29T01:34:20;6.70;99.90
47022;DHT22;32779;52.264;6.154;2022-09-29T01:40:02;6.70;99.90
47022;DHT22;32779;52.264;6.154;2022-09-29T01:45:22;6.60;99.90
47022;DHT22;32779;52.264;6.154;2022-09-29T01:47:53;6.60;99.90
47022;DHT22;32779;52.264;6.154;2022-09-29T01:50:23;6.70;99.90
47022;DHT22;32779;52.264;6.154;2022-09-29T01:52:56;6.70;99.90
47022;DHT22;32779;52.264;6.154;2022-09-29T01:55:28;6.60;99.90
47022;DHT22;32779;52.264;6.154;2022-09-29T01:58:06;6.60;99.90
47022;DHT22;32779;52.264;6.154;2022-09-29T02:00:39;6.50;99.90
47022;DHT22;32779;52.264;6.154;2022-09-29T02:06:20;6.50;99.90
47022;DHT22;32779;52.264;6.154;2022-09-29T02:08:55;6.40;99.90
47022;DHT22;32779;52.264;6.154;2022-09-29T02:11:21;6.40;99.90
47022;DHT22;32779;52.264;6.154;2022-09-29T02:14:11;6.50;99.90
47022;DHT22;32779;52.264;6.154;2022-09-29T02:16:44;6.50;99.90
47022;DHT22;32779;52.264;6.154;2022-09-29T02:19:16;6.50;99.90
47022;DHT22;32779;52.264;6.154;2022-09-29T02:21:42;6.60;99.90
47022;DHT22;32779;52.264;6.154;2022-09-29T02:24:10;6.50;99.90
47022;DHT22;32779;52.264;6.154;2022-09-29T02:26:35;6.50;99.90
47022;DHT22;32779;52.264;6.154;2022-09-29T02:29:03;6.50;99.90
47022;DHT22;32779;52.264;6.154;2022-09-29T02:31:30;6.40;99.90
47022;DHT22;32779;52.264;6.154;2022-09-29T02:33:57;6.50;99.90
47022;DHT22;32779;52.264;6.154;2022-09-29T02:36:29;6.40;99.90
47022;DHT22;32779;52.264;6.154;2022-09-29T02:47:18;6.50;99.90
47022;DHT22;32779;52.264;6.154;2022-09-29T02:53:50;6.60;99.90
47022;DHT22;32779;52.264;6.154;2022-09-29T03:01:30;6.60;99.90
47022;DHT22;32779;52.264;6.154;2022-09-29T03:03:56;6.70;99.90
47022;DHT22;32779;52.264;6.154;2022-09-29T03:06:22;6.70;99.90
47022;DHT22;32779;52.264;6.154;2022-09-29T03:08:47;6.70;99.90
47022;DHT22;32779;52.264;6.154;2022-09-29T03:11:13;6.70;99.90
47022;DHT22;32779;52.264;6.154;2022-09-29T03:13:38;6.70;99.90
47022;DHT22;32779;52.264;6.154;2022-09-29T03:16:04;6.70;99.90
47022;DHT22;32779;52.264;6.154;2022-09-29T03:18:30;6.70;99.90
47022;DHT22;32779;52.264;6.154;2022-09-29T03:20:56;6.70;99.90
47022;DHT22;32779;52.264;6.154;2022-09-29T03:23:21;6.70;99.90
47022;DHT22;32779;52.264;6.154;2022-09-29T03:25:47;6.70;99.90
47022;DHT22;32779;52.264;6.154;2022-09-29T03:28:13;6.70;99.90
47022;DHT22;32779;52.264;6.154;2022-09-29T03:30:40;6.70;99.90
47022;DHT22;32779;52.264;6.154;2022-09-29T03:33:06;6.70;99.90
47022;DHT22;32779;52.264;6.154;2022-09-29T03:35:32;6.70;99.90
47022;DHT22;32779;52.264;6.154;2022-09-29T03:37:58;6.80;99.90
47022;DHT22;32779;52.264;6.154;2022-09-29T03:40:25;6.70;99.90
47022;DHT22;32779;52.264;6.154;2022-09-29T03:42:50;6.70;99.90
47022;DHT22;32779;52.264;6.154;2022-09-29T03:45:16;6.70;99.90
47022;DHT22;32779;52.264;6.154;2022-09-29T03:47:41;6.70;99.90
47022;DHT22;32779;52.264;6.154;2022-09-29T03:50:07;6.60;99.90
47022;DHT22;32779;52.264;6.154;2022-09-29T03:52:33;6.60;99.90
47022;DHT22;32779;52.264;6.154;2022-09-29T03:54:59;6.60;99.90
47022;DHT22;32779;52.264;6.154;2022-09-29T03:57:24;6.50;99.90
47022;DHT22;32779;52.264;6.154;2022-09-29T03:59:50;6.50;99.90
47022;DHT22;32779;52.264;6.154;2022-09-29T04:02:17;6.50;99.90
47022;DHT22;32779;52.264;6.154;2022-09-29T04:04:44;6.40;99.90
47022;DHT22;32779;52.264;6.154;2022-09-29T04:07:10;6.40;99.90
47022;DHT22;32779;52.264;6.154;2022-09-29T04:09:35;6.30;99.90
47022;DHT22;32779;52.264;6.154;2022-09-29T04:12:01;6.30;99.90
47022;DHT22;32779;52.264;6.154;2022-09-29T04:14:27;6.40;99.90
47022;DHT22;32779;52.264;6.154;2022-09-29T04:16:52;6.40;99.90
47022;DHT22;32779;52.264;6.154;2022-09-29T04:19:18;6.30;99.90
47022;DHT22;32779;52.264;6.154;2022-09-29T04:21:43;6.30;99.90
47022;DHT22;32779;52.264;6.154;2022-09-29T04:24:10;6.30;99.90
47022;DHT22;32779;52.264;6.154;2022-09-29T04:26:36;6.30;99.90
47022;DHT22;32779;52.264;6.154;2022-09-29T04:29:01;6.30;99.90
47022;DHT22;32779;52.264;6.154;2022-09-29T04:31:27;6.20;99.90
47022;DHT22;32779;52.264;6.154;2022-09-29T04:33:53;6.20;99.90
47022;DHT22;32779;52.264;6.154;2022-09-29T04:36:18;6.20;99.90
47022;DHT22;32779;52.264;6.154;2022-09-29T04:38:44;6.20;99.90
47022;DHT22;32779;52.264;6.154;2022-09-29T04:41:09;6.20;99.90
47022;DHT22;32779;52.264;6.154;2022-09-29T04:43:35;6.20;99.90
47022;DHT22;32779;52.264;6.154;2022-09-29T04:46:02;6.10;99.90
47022;DHT22;32779;52.264;6.154;2022-09-29T04:48:28;6.00;99.90
47022;DHT22;32779;52.264;6.154;2022-09-29T04:50:54;6.00;99.90
47022;DHT22;32779;52.264;6.154;2022-09-29T04:53:19;6.00;99.90
47022;DHT22;32779;52.264;6.154;2022-09-29T04:55:45;6.10;99.90
47022;DHT22;32779;52.264;6.154;2022-09-29T04:58:10;6.10;99.90
47022;DHT22;32779;52.264;6.154;2022-09-29T05:00:36;6.00;99.90
47022;DHT22;32779;52.264;6.154;2022-09-29T05:03:01;6.00;99.90
47022;DHT22;32779;52.264;6.154;2022-09-29T05:05:27;6.00;99.90
47022;DHT22;32779;52.264;6.154;2022-09-29T05:07:53;6.00;99.90
47022;DHT22;32779;52.264;6.154;2022-09-29T05:10:19;6.10;99.90
47022;DHT22;32779;52.264;6.154;2022-09-29T05:12:49;6.10;99.90
47022;DHT22;32779;52.264;6.154;2022-09-29T05:15:16;6.00;99.90
47022;DHT22;32779;52.264;6.154;2022-09-29T05:17:42;6.00;99.90
47022;DHT22;32779;52.264;6.154;2022-09-29T05:20:08;6.00;99.90
47022;DHT22;32779;52.264;6.154;2022-09-29T05:22:33;6.00;99.90
47022;DHT22;32779;52.264;6.154;2022-09-29T05:25:02;6.00;99.90
47022;DHT22;32779;52.264;6.154;2022-09-29T05:27:28;6.00;99.90
47022;DHT22;32779;52.264;6.154;2022-09-29T05:29:53;6.00;99.90
47022;DHT22;32779;52.264;6.154;2022-09-29T05:32:19;5.90;99.90
47022;DHT22;32779;52.264;6.154;2022-09-29T05:34:44;5.90;99.90
47022;DHT22;32779;52.264;6.154;2022-09-29T05:37:10;5.90;99.90
47022;DHT22;32779;52.264;6.154;2022-09-29T05:39:36;5.90;99.90
47022;DHT22;32779;52.264;6.154;2022-09-29T05:42:07;5.80;99.90
47022;DHT22;32779;52.264;6.154;2022-09-29T05:44:34;5.90;99.90
47022;DHT22;32779;52.264;6.154;2022-09-29T05:47:00;5.80;99.90
47022;DHT22;32779;52.264;6.154;2022-09-29T05:49:25;5.80;99.90
47022;DHT22;32779;52.264;6.154;2022-09-29T05:51:51;5.90;99.90
47022;DHT22;32779;52.264;6.154;2022-09-29T05:54:17;5.80;99.90
47022;DHT22;32779;52.264;6.154;2022-09-29T05:56:42;5.80;99.90
47022;DHT22;32779;52.264;6.154;2022-09-29T05:59:09;5.80;99.90
47022;DHT22;32779;52.264;6.154;2022-09-29T06:01:34;5.80;99.90
47022;DHT22;32779;52.264;6.154;2022-09-29T06:04:00;5.80;99.90
47022;DHT22;32779;52.264;6.154;2022-09-29T06:06:27;5.80;99.90
47022;DHT22;32779;52.264;6.154;2022-09-29T06:08:53;5.80;99.90
47022;DHT22;32779;52.264;6.154;2022-09-29T06:11:20;5.80;99.90
47022;DHT22;32779;52.264;6.154;2022-09-29T06:13:48;5.90;99.90
47022;DHT22;32779;52.264;6.154;2022-09-29T06:16:15;5.90;99.90
47022;DHT22;32779;52.264;6.154;2022-09-29T06:18:41;5.90;99.90
47022;DHT22;32779;52.264;6.154;2022-09-29T06:21:18;6.00;99.90
47022;DHT22;32779;52.264;6.154;2022-09-29T06:23:44;5.90;99.90
47022;DHT22;32779;52.264;6.154;2022-09-29T06:26:12;6.00;99.90
47022;DHT22;32779;52.264;6.154;2022-09-29T06:28:38;6.10;99.90
47022;DHT22;32779;52.264;6.154;2022-09-29T06:31:07;6.10;99.90
47022;DHT22;32779;52.264;6.154;2022-09-29T06:33:34;6.10;99.90
47022;DHT22;32779;52.264;6.154;2022-09-29T06:36:15;6.20;99.90
47022;DHT22;32779;52.264;6.154;2022-09-29T06:39:00;6.20;99.90
47022;DHT22;32779;52.264;6.154;2022-09-29T06:41:26;6.20;99.90
47022;DHT22;32779;52.264;6.154;2022-09-29T06:43:53;6.20;99.90
47022;DHT22;32779;52.264;6.154;2022-09-29T06:46:18;6.20;99.90
47022;DHT22;32779;52.264;6.154;2022-09-29T06:48:44;6.30;99.90
47022;DHT22;32779;52.264;6.154;2022-09-29T06:51:10;6.30;99.90
47022;DHT22;32779;52.264;6.154;2022-09-29T06:53:36;6.30;99.90
47022;DHT22;32779;52.264;6.154;2022-09-29T06:56:02;6.40;99.90
47022;DHT22;32779;52.264;6.154;2022-09-29T06:58:28;6.40;99.90
47022;DHT22;32779;52.264;6.154;2022-09-29T07:00:53;6.40;99.90
47022;DHT22;32779;52.264;6.154;2022-09-29T07:03:19;6.40;99.90
47022;DHT22;32779;52.264;6.154;2022-09-29T07:05:46;6.50;99.90
47022;DHT22;32779;52.264;6.154;2022-09-29T07:08:11;6.50;99.90
47022;DHT22;32779;52.264;6.154;2022-09-29T07:10:37;6.60;99.90
47022;DHT22;32779;52.264;6.154;2022-09-29T07:13:02;6.60;99.90
47022;DHT22;32779;52.264;6.154;2022-09-29T07:15:28;6.60;99.90
47022;DHT22;32779;52.264;6.154;2022-09-29T07:17:57;6.70;99.90
47022;DHT22;32779;52.264;6.154;2022-09-29T07:20:25;6.80;99.90
47022;DHT22;32779;52.264;6.154;2022-09-29T07:22:50;6.80;99.90
47022;DHT22;32779;52.264;6.154;2022-09-29T07:25:16;6.90;99.90
47022;DHT22;32779;52.264;6.154;2022-09-29T07:27:41;6.90;99.90
47022;DHT22;32779;52.264;6.154;2022-09-29T07:30:07;6.90;99.90
47022;DHT22;32779;52.264;6.154;2022-09-29T07:32:33;7.00;99.90
47022;DHT22;32779;52.264;6.154;2022-09-29T07:34:59;7.10;99.90
47022;DHT22;32779;52.264;6.154;2022-09-29T07:37:26;7.10;99.90
47022;DHT22;32779;52.264;6.154;2022-09-29T07:39:51;7.20;99.90
47022;DHT22;32779;52.264;6.154;2022-09-29T07:42:18;7.20;99.90
47022;DHT22;32779;52.264;6.154;2022-09-29T07:44:44;7.30;99.90
47022;DHT22;32779;52.264;6.154;2022-09-29T07:47:09;7.30;99.90
47022;DHT22;32779;52.264;6.154;2022-09-29T07:49:35;7.40;99.90
47022;DHT22;32779;52.264;6.154;2022-09-29T07:52:01;7.50;99.90
47022;DHT22;32779;52.264;6.154;2022-09-29T07:54:26;7.50;99.90
47022;DHT22;32779;52.264;6.154;2022-09-29T07:56:52;7.50;99.90
47022;DHT22;32779;52.264;6.154;2022-09-29T07:59:17;7.60;99.90
47022;DHT22;32779;52.264;6.154;2022-09-29T08:01:43;7.60;99.90
47022;DHT22;32779;52.264;6.154;2022-09-29T08:04:08;7.70;99.90
47022;DHT22;32779;52.264;6.154;2022-09-29T08:06:35;7.70;99.90
47022;DHT22;32779;52.264;6.154;2022-09-29T08:09:01;7.80;99.90
47022;DHT22;32779;52.264;6.154;2022-09-29T08:11:27;7.90;99.90
47022;DHT22;32779;52.264;6.154;2022-09-29T08:13:52;7.90;99.90
47022;DHT22;32779;52.264;6.154;2022-09-29T08:16:18;7.90;99.90
47022;DHT22;32779;52.264;6.154;2022-09-29T08:18:44;8.00;99.90
47022;DHT22;32779;52.264;6.154;2022-09-29T08:21:11;8.00;99.90
47022;DHT22;32779;52.264;6.154;2022-09-29T08:23:40;8.10;99.90
47022;DHT22;32779;52.264;6.154;2022-09-29T08:26:08;8.20;99.90
47022;DHT22;32779;52.264;6.154;2022-09-29T08:28:35;8.30;99.90
47022;DHT22;32779;52.264;6.154;2022-09-29T08:31:06;8.30;99.90
47022;DHT22;32779;52.264;6.154;2022-09-29T08:33:33;8.40;99.90
47022;DHT22;32779;52.264;6.154;2022-09-29T08:36:00;8.40;99.90
47022;DHT22;32779;52.264;6.154;2022-09-29T08:38:25;8.40;99.90
47022;DHT22;32779;52.264;6.154;2022-09-29T08:40:52;8.50;99.90
47022;DHT22;32779;52.264;6.154;2022-09-29T08:43:26;8.60;99.90
47022;DHT22;32779;52.264;6.154;2022-09-29T08:46:03;8.70;99.90
47022;DHT22;32779;52.264;6.154;2022-09-29T08:48:36;8.80;99.90
47022;DHT22;32779;52.264;6.154;2022-09-29T08:51:06;8.90;99.90
47022;DHT22;32779;52.264;6.154;2022-09-29T08:53:36;8.90;99.90
47022;DHT22;32779;52.264;6.154;2022-09-29T08:56:12;9.00;99.90
47022;DHT22;32779;52.264;6.154;2022-09-29T08:58:39;9.00;99.90
47022;DHT22;32779;52.264;6.154;2022-09-29T09:07:09;9.30;99.90
47022;DHT22;32779;52.264;6.154;2022-09-29T09:09:45;9.40;99.90
47022;DHT22;32779;52.264;6.154;2022-09-29T09:15:25;9.40;99.90
47022;DHT22;32779;52.264;6.154;2022-09-29T09:18:54;9.40;99.90
47022;DHT22;32779;52.264;6.154;2022-09-29T09:23:43;9.50;99.90
47022;DHT22;32779;52.264;6.154;2022-09-29T09:26:12;9.60;99.90
47022;DHT22;32779;52.264;6.154;2022-09-29T09:28:50;9.60;99.90
47022;DHT22;32779;52.264;6.154;2022-09-29T09:31:26;9.60;99.90
47022;DHT22;32779;52.264;6.154;2022-09-29T09:34:17;9.60;99.90
47022;DHT22;32779;52.264;6.154;2022-09-29T09:36:48;9.60;99.90
47022;DHT22;32779;52.264;6.154;2022-09-29T09:40:03;9.70;99.90
47022;DHT22;32779;52.264;6.154;2022-09-29T09:42:30;9.60;99.90
47022;DHT22;32779;52.264;6.154;2022-09-29T09:45:05;9.70;99.90
47022;DHT22;32779;52.264;6.154;2022-09-29T09:47:48;9.70;99.90
47022;DHT22;32779;52.264;6.154;2022-09-29T09:50:18;9.80;99.90
47022;DHT22;32779;52.264;6.154;2022-09-29T09:52:51;9.90;99.90
47022;DHT22;32779;52.264;6.154;2022-09-29T09:55:19;10.00;99.90
47022;DHT22;32779;52.264;6.154;2022-09-29T09:58:21;10.00;99.90
47022;DHT22;32779;52.264;6.154;2022-09-29T10:00:57;10.10;99.90
47022;DHT22;32779;52.264;6.154;2022-09-29T10:03:23;10.20;99.90
47022;DHT22;32779;52.264;6.154;2022-09-29T10:05:49;10.20;99.90
47022;DHT22;32779;52.264;6.154;2022-09-29T10:08:26;10.30;99.90
47022;DHT22;32779;52.264;6.154;2022-09-29T10:10:52;10.30;99.90
47022;DHT22;32779;52.264;6.154;2022-09-29T10:13:19;10.30;99.90
47022;DHT22;32779;52.264;6.154;2022-09-29T10:18:43;10.50;99.90
47022;DHT22;32779;52.264;6.154;2022-09-29T10:23:54;10.70;99.90
47022;DHT22;32779;52.264;6.154;2022-09-29T10:26:23;10.70;99.90
47022;DHT22;32779;52.264;6.154;2022-09-29T10:28:56;10.70;99.90
47022;DHT22;32779;52.264;6.154;2022-09-29T10:31:28;10.80;99.90
47022;DHT22;32779;52.264;6.154;2022-09-29T10:34:12;10.80;99.90
47022;DHT22;32779;52.264;6.154;2022-09-29T10:37:00;10.80;99.90
47022;DHT22;32779;52.264;6.154;2022-09-29T10:39:45;10.90;99.90
47022;DHT22;32779;52.264;6.154;2022-09-29T10:42:24;11.00;99.90
47022;DHT22;32779;52.264;6.154;2022-09-29T10:44:53;11.10;99.90
47022;DHT22;32779;52.264;6.154;2022-09-29T10:47:20;11.10;99.90
47022;DHT22;32779;52.264;6.154;2022-09-29T10:49:46;11.20;99.90
47022;DHT22;32779;52.264;6.154;2022-09-29T10:52:29;11.30;99.90
47022;DHT22;32779;52.264;6.154;2022-09-29T10:54:58;11.40;99.90
47022;DHT22;32779;52.264;6.154;2022-09-29T10:57:30;11.40;99.90
47022;DHT22;32779;52.264;6.154;2022-09-29T10:59:57;11.50;99.90
47022;DHT22;32779;52.264;6.154;2022-09-29T11:02:28;11.60;99.90
47022;DHT22;32779;52.264;6.154;2022-09-29T11:04:58;11.70;99.90
47022;DHT22;32779;52.264;6.154;2022-09-29T11:07:25;11.80;99.90
47022;DHT22;32779;52.264;6.154;2022-09-29T11:09:51;11.90;99.90
47022;DHT22;32779;52.264;6.154;2022-09-29T11:14:50;12.00;99.90
47022;DHT22;32779;52.264;6.154;2022-09-29T11:19:53;12.20;99.90
47022;DHT22;32779;52.264;6.154;2022-09-29T11:22:35;12.20;99.90
47022;DHT22;32779;52.264;6.154;2022-09-29T11:30:51;12.40;99.90
47022;DHT22;32779;52.264;6.154;2022-09-29T11:33:35;12.40;99.90
47022;DHT22;32779;52.264;6.154;2022-09-29T11:36:14;12.50;99.90
47022;DHT22;32779;52.264;6.154;2022-09-29T11:39:03;12.50;99.90
47022;DHT22;32779;52.264;6.154;2022-09-29T11:41:48;12.60;99.90
47022;DHT22;32779;52.264;6.154;2022-09-29T11:50:02;12.60;99.90
47022;DHT22;32779;52.264;6.154;2022-09-29T11:58:19;12.80;99.90
47022;DHT22;32779;52.264;6.154;2022-09-29T12:14:32;13.20;99.90
47022;DHT22;32779;52.264;6.154;2022-09-29T12:17:10;13.20;99.90
47022;DHT22;32779;52.264;6.154;2022-09-29T12:19:37;13.20;99.90
47022;DHT22;32779;52.264;6.154;2022-09-29T12:22:08;13.30;99.90
47022;DHT22;32779;52.264;6.154;2022-09-29T12:24:35;13.30;99.90
47022;DHT22;32779;52.264;6.154;2022-09-29T12:27:05;13.30;99.90
47022;DHT22;32779;52.264;6.154;2022-09-29T12:29:45;13.40;99.90
47022;DHT22;32779;52.264;6.154;2022-09-29T12:32:17;13.50;99.90
47022;DHT22;32779;52.264;6.154;2022-09-29T12:34:49;13.50;99.90
47022;DHT22;32779;52.264;6.154;2022-09-29T12:40:08;13.60;99.90
47022;DHT22;32779;52.264;6.154;2022-09-29T12:45:43;13.50;99.90
47022;DHT22;32779;52.264;6.154;2022-09-29T12:48:34;13.40;99.90
47022;DHT22;32779;52.264;6.154;2022-09-29T12:51:14;13.40;99.90
47022;DHT22;32779;52.264;6.154;2022-09-29T12:56:42;13.50;99.90
47022;DHT22;32779;52.264;6.154;2022-09-29T13:11:01;14.10;99.90
47022;DHT22;32779;52.264;6.154;2022-09-29T13:16:22;14.20;99.90
47022;DHT22;32779;52.264;6.154;2022-09-29T13:21:49;14.30;99.90
47022;DHT22;32779;52.264;6.154;2022-09-29T13:30:05;14.30;99.90
47022;DHT22;32779;52.264;6.154;2022-09-29T13:32:49;14.30;99.90
47022;DHT22;32779;52.264;6.154;2022-09-29T13:35:20;14.40;99.90
47022;DHT22;32779;52.264;6.154;2022-09-29T13:37:56;14.40;99.90
47022;DHT22;32779;52.264;6.154;2022-09-29T13:40:27;14.40;99.90
47022;DHT22;32779;52.264;6.154;2022-09-29T13:42:55;14.40;99.90
47022;DHT22;32779;52.264;6.154;2022-09-29T13:47:58;14.40;99.90
47022;DHT22;32779;52.264;6.154;2022-09-29T14:01:09;14.40;99.90
47022;DHT22;32779;52.264;6.154;2022-09-29T14:03:40;14.40;99.90
47022;DHT22;32779;52.264;6.154;2022-09-29T14:06:23;14.40;99.90
47022;DHT22;32779;52.264;6.154;2022-09-29T14:08:58;14.40;99.90
47022;DHT22;32779;52.264;6.154;2022-09-29T14:11:47;14.40;99.90
47022;DHT22;32779;52.264;6.154;2022-09-29T14:14:17;14.40;99.90
47022;DHT22;32779;52.264;6.154;2022-09-29T14:16:57;14.40;99.90
47022;DHT22;32779;52.264;6.154;2022-09-29T14:19:36;14.40;99.90
47022;DHT22;32779;52.264;6.154;2022-09-29T14:33:25;14.20;99.90
47022;DHT22;32779;52.264;6.154;2022-09-29T14:40:57;14.10;99.90
47022;DHT22;32779;52.264;6.154;2022-09-29T14:43:50;14.00;99.90
47022;DHT22;32779;52.264;6.154;2022-09-29T15:01:17;13.30;99.90
47022;DHT22;32779;52.264;6.154;2022-09-29T15:03:50;13.20;99.90
47022;DHT22;32779;52.264;6.154;2022-09-29T15:06:23;13.10;99.90
47022;DHT22;32779;52.264;6.154;2022-09-29T15:09:22;13.00;99.90
47022;DHT22;32779;52.264;6.154;2022-09-29T15:11:54;13.00;99.90
47022;DHT22;32779;52.264;6.154;2022-09-29T15:14:33;12.90;99.90
47022;DHT22;32779;52.264;6.154;2022-09-29T15:20:07;12.80;99.90
47022;DHT22;32779;52.264;6.154;2022-09-29T15:27:32;12.80;99.90
47022;DHT22;32779;52.264;6.154;2022-09-29T15:29:58;12.80;99.90
47022;DHT22;32779;52.264;6.154;2022-09-29T15:32:25;12.80;99.90
47022;DHT22;32779;52.264;6.154;2022-09-29T15:34:53;12.70;99.90
47022;DHT22;32779;52.264;6.154;2022-09-29T15:37:24;12.70;99.90
47022;DHT22;32779;52.264;6.154;2022-09-29T15:39:50;12.70;99.90
47022;DHT22;32779;52.264;6.154;2022-09-29T15:42:19;12.70;99.90
47022;DHT22;32779;52.264;6.154;2022-09-29T15:44:59;12.70;99.90
47022;DHT22;32779;52.264;6.154;2022-09-29T15:47:33;12.70;99.90
47022;DHT22;32779;52.264;6.154;2022-09-29T15:50:03;12.60;99.90
47022;DHT22;32779;52.264;6.154;2022-09-29T15:52:30;12.70;99.90
47022;DHT22;32779;52.264;6.154;2022-09-29T15:54:57;12.70;99.90
47022;DHT22;32779;52.264;6.154;2022-09-29T15:57:50;12.70;99.90
47022;DHT22;32779;52.264;6.154;2022-09-29T16:05:15;12.70;99.90
47022;DHT22;32779;52.264;6.154;2022-09-29T16:07:56;12.70;99.90
47022;DHT22;32779;52.264;6.154;2022-09-29T16:13:24;12.70;99.90
47022;DHT22;32779;52.264;6.154;2022-09-29T16:15:55;12.60;99.90
47022;DHT22;32779;52.264;6.154;2022-09-29T16:18:25;12.50;99.90
47022;DHT22;32779;52.264;6.154;2022-09-29T16:20:56;12.50;99.90
47022;DHT22;32779;52.264;6.154;2022-09-29T16:23:27;12.50;99.90
47022;DHT22;32779;52.264;6.154;2022-09-29T16:28:31;12.40;99.90
47022;DHT22;32779;52.264;6.154;2022-09-29T16:31:10;12.40;99.90
47022;DHT22;32779;52.264;6.154;2022-09-29T16:33:44;12.40;99.90
47022;DHT22;32779;52.264;6.154;2022-09-29T16:36:17;12.30;99.90
47022;DHT22;32779;52.264;6.154;2022-09-29T16:38:45;12.20;99.90
47022;DHT22;32779;52.264;6.154;2022-09-29T16:43:40;12.10;99.90
47022;DHT22;32779;52.264;6.154;2022-09-29T16:46:20;12.10;99.90
47022;DHT22;32779;52.264;6.154;2022-09-29T16:48:47;12.00;99.90
47022;DHT22;32779;52.264;6.154;2022-09-29T16:51:19;11.90;99.90
47022;DHT22;32779;52.264;6.154;2022-09-29T16:53:46;11.90;99.90
47022;DHT22;32779;52.264;6.154;2022-09-29T16:56:17;11.90;99.90
47022;DHT22;32779;52.264;6.154;2022-09-29T16:58:44;11.80;99.90
47022;DHT22;32779;52.264;6.154;2022-09-29T17:01:10;11.70;99.90
47022;DHT22;32779;52.264;6.154;2022-09-29T17:03:39;11.70;99.90
47022;DHT22;32779;52.264;6.154;2022-09-29T17:06:06;11.60;99.90
47022;DHT22;32779;52.264;6.154;2022-09-29T17:08:32;11.50;99.90
47022;DHT22;32779;52.264;6.154;2022-09-29T17:11:00;11.50;99.90
47022;DHT22;32779;52.264;6.154;2022-09-29T17:13:32;11.40;99.90
47022;DHT22;32779;52.264;6.154;2022-09-29T17:15:58;11.30;99.90
47022;DHT22;32779;52.264;6.154;2022-09-29T17:18:25;11.20;99.90
47022;DHT22;32779;52.264;6.154;2022-09-29T17:20:53;11.20;99.90
47022;DHT22;32779;52.264;6.154;2022-09-29T17:23:18;11.10;99.90
47022;DHT22;32779;52.264;6.154;2022-09-29T17:25:45;11.00;99.90
47022;DHT22;32779;52.264;6.154;2022-09-29T17:28:17;10.90;99.90
47022;DHT22;32779;52.264;6.154;2022-09-29T17:30:45;10.90;99.90
47022;DHT22;32779;52.264;6.154;2022-09-29T17:33:16;10.80;99.90
47022;DHT22;32779;52.264;6.154;2022-09-29T17:35:44;10.70;99.90
47022;DHT22;32779;52.264;6.154;2022-09-29T17:38:12;10.60;99.90
47022;DHT22;32779;52.264;6.154;2022-09-29T17:40:56;10.60;99.90
47022;DHT22;32779;52.264;6.154;2022-09-29T17:43:25;10.50;99.90
47022;DHT22;32779;52.264;6.154;2022-09-29T17:45:53;10.40;99.90
47022;DHT22;32779;52.264;6.154;2022-09-29T17:48:19;10.30;99.90
47022;DHT22;32779;52.264;6.154;2022-09-29T17:50:47;10.20;99.90
47022;DHT22;32779;52.264;6.154;2022-09-29T17:53:13;10.10;99.90
47022;DHT22;32779;52.264;6.154;2022-09-29T17:55:39;10.10;99.90
47022;DHT22;32779;52.264;6.154;2022-09-29T17:58:06;10.00;99.90
47022;DHT22;32779;52.264;6.154;2022-09-29T18:00:34;10.00;99.90
47022;DHT22;32779;52.264;6.154;2022-09-29T18:03:07;9.90;99.90
47022;DHT22;32779;52.264;6.154;2022-09-29T18:05:35;9.90;99.90
47022;DHT22;32779;52.264;6.154;2022-09-29T18:08:03;9.80;99.90
47022;DHT22;32779;52.264;6.154;2022-09-29T18:10:36;9.70;99.90
47022;DHT22;32779;52.264;6.154;2022-09-29T18:13:03;9.70;99.90
47022;DHT22;32779;52.264;6.154;2022-09-29T18:15:29;9.60;99.90
47022;DHT22;32779;52.264;6.154;2022-09-29T18:17:56;9.60;99.90
47022;DHT22;32779;52.264;6.154;2022-09-29T18:20:23;9.50;99.90
47022;DHT22;32779;52.264;6.154;2022-09-29T18:22:50;9.50;99.90
47022;DHT22;32779;52.264;6.154;2022-09-29T18:25:17;9.50;99.90
47022;DHT22;32779;52.264;6.154;2022-09-29T18:27:46;9.50;99.90
47022;DHT22;32779;52.264;6.154;2022-09-29T18:30:19;9.50;99.90
47022;DHT22;32779;52.264;6.154;2022-09-29T18:32:50;9.40;99.90
47022;DHT22;32779;52.264;6.154;2022-09-29T18:35:18;9.40;99.90
47022;DHT22;32779;52.264;6.154;2022-09-29T18:37:44;9.30;99.90
47022;DHT22;32779;52.264;6.154;2022-09-29T18:40:10;9.30;99.90
47022;DHT22;32779;52.264;6.154;2022-09-29T18:42:40;9.30;99.90
47022;DHT22;32779;52.264;6.154;2022-09-29T18:45:15;9.30;99.90
47022;DHT22;32779;52.264;6.154;2022-09-29T18:47:45;9.30;99.90
47022;DHT22;32779;52.264;6.154;2022-09-29T18:50:18;9.30;99.90
47022;DHT22;32779;52.264;6.154;2022-09-29T18:52:45;9.30;99.90
47022;DHT22;32779;52.264;6.154;2022-09-29T18:55:12;9.20;99.90
47022;DHT22;32779;52.264;6.154;2022-09-29T18:57:38;9.20;99.90
47022;DHT22;32779;52.264;6.154;2022-09-29T19:00:06;9.20;99.90
47022;DHT22;32779;52.264;6.154;2022-09-29T19:02:36;9.20;99.90